Time;durP1;ratioP1;P1;durP2;ratioP2;P2;SDS_P1;SDS_P2;PMS_P1;PMS_P2;Temp;Humidity;BMP_temperature;BMP_pressure;BME280_temperature;BME280_humidity;BME280_pressure;Samples;Min_cycle;Max_cycle;Signal;HPM_P1;HPM_P2
2023/01/27 00:00:42;;;;;;;14.85;4.90;;;;;;;5.02;100.00;101984.81;4958066;28;20047;-81
2023/01/27 00:03:12;;;;;;;12.88;4.65;;;;;;;4.98;100.00;101999.50;4964321;28;20515;-79
2023/01/27 00:05:42;;;;;;;16.17;4.95;;;;;;;4.99;100.00;101999.19;4957235;28;20762;-78
2023/01/27 00:08:08;;;;;;;18.75;5.82;;;;;;;5.00;100.00;101989.81;4952320;28;20055;-79
2023/01/27 00:10:36;;;;;;;19.83;5.45;;;;;;;4.96;100.00;101986.13;4952565;28;20051;-78
2023/01/27 00:15:47;;;;;;;24.48;6.90;;;;;;;4.99;100.00;101996.44;4958519;28;20066;-79
2023/01/27 00:18:14;;;;;;;11.20;3.83;;;;;;;4.97;100.00;101997.91;4954959;28;20129;-79
2023/01/27 00:26:17;;;;;;;22.95;6.40;;;;;;;4.94;100.00;101996.63;4962547;28;20054;-81
2023/01/27 00:28:45;;;;;;;26.02;7.25;;;;;;;4.96;100.00;101999.84;4955927;28;20055;-78
2023/01/27 00:34:07;;;;;;;23.92;7.28;;;;;;;4.96;100.00;102004.50;4954416;28;20056;-79
2023/01/27 00:36:36;;;;;;;19.05;6.68;;;;;;;4.99;100.00;101999.19;4960772;28;20054;-78
2023/01/27 00:39:04;;;;;;;20.55;6.15;;;;;;;5.00;100.00;101998.03;4955798;28;20173;-81
2023/01/27 00:41:32;;;;;;;23.90;7.35;;;;;;;5.00;100.00;102009.00;4953602;28;20055;-79
2023/01/27 00:44:00;;;;;;;24.27;7.75;;;;;;;5.01;100.00;102005.16;4955861;28;20054;-79
2023/01/27 00:46:27;;;;;;;22.83;7.40;;;;;;;4.95;100.00;101998.22;4950391;28;20055;-78
2023/01/27 00:48:53;;;;;;;28.25;7.72;;;;;;;5.00;100.00;102000.00;4950543;28;20386;-79
2023/01/27 00:51:20;;;;;;;22.73;7.50;;;;;;;4.97;100.00;102000.66;4949644;28;20047;-79
2023/01/27 00:53:47;;;;;;;21.52;7.13;;;;;;;5.00;100.00;102002.75;4955730;28;20054;-78
2023/01/27 00:56:14;;;;;;;6.00;1.70;;;;;;;4.96;100.00;102005.31;4957974;28;20161;-78
2023/01/27 00:58:41;;;;;;;22.38;6.68;;;;;;;4.93;100.00;101989.50;4957628;28;20046;-78
2023/01/27 01:01:11;;;;;;;24.48;7.90;;;;;;;5.00;100.00;101998.03;4952533;28;20517;-78
2023/01/27 01:03:38;;;;;;;24.40;7.35;;;;;;;5.00;100.00;102003.53;4951977;28;20050;-81
2023/01/27 01:06:07;;;;;;;21.10;6.25;;;;;;;4.98;100.00;102005.00;4953494;28;20047;-78
2023/01/27 01:08:35;;;;;;;23.35;5.95;;;;;;;4.99;100.00;102006.59;4954879;28;20078;-79
2023/01/27 01:11:03;;;;;;;21.92;6.45;;;;;;;4.99;100.00;102007.41;4955455;28;20136;-80
2023/01/27 01:13:30;;;;;;;25.33;8.55;;;;;;;4.98;100.00;102002.25;4958726;28;20061;-79
2023/01/27 01:15:57;;;;;;;21.52;7.03;;;;;;;5.00;100.00;102011.75;4948933;28;20830;-80
2023/01/27 01:18:23;;;;;;;24.10;8.82;;;;;;;4.99;100.00;102014.81;4946263;28;20573;-81
2023/01/27 01:20:50;;;;;;;22.60;8.25;;;;;;;4.95;100.00;102028.41;4954288;28;20047;-80
2023/01/27 01:23:16;;;;;;;23.08;8.55;;;;;;;4.98;100.00;102030.50;4954400;28;20054;-80
2023/01/27 01:25:51;;;;;;;18.40;6.30;;;;;;;4.88;100.00;102024.56;4952093;28;20051;-79
2023/01/27 01:28:18;;;;;;;25.58;8.32;;;;;;;4.96;100.00;102031.94;4944690;28;20055;-78
2023/01/27 01:30:44;;;;;;;13.35;4.68;;;;;;;4.94;100.00;102034.22;4950687;28;20047;-81
2023/01/27 01:33:11;;;;;;;23.05;9.10;;;;;;;4.92;100.00;102040.03;4952306;28;20047;-80
2023/01/27 01:35:38;;;;;;;22.40;9.00;;;;;;;4.92;100.00;102040.03;4950645;28;20039;-80
2023/01/27 01:38:05;;;;;;;28.83;10.23;;;;;;;4.87;100.00;102047.63;4951016;28;20141;-78
2023/01/27 01:40:32;;;;;;;29.05;10.90;;;;;;;4.82;100.00;102054.09;4948656;28;20055;-79
2023/01/27 01:43:03;;;;;;;32.20;11.60;;;;;;;4.81;100.00;102057.16;4957633;28;20094;-79
2023/01/27 01:45:32;;;;;;;34.15;12.25;;;;;;;4.76;100.00;102058.13;4954054;28;20046;-78
2023/01/27 01:48:09;;;;;;;32.70;11.77;;;;;;;4.68;100.00;102058.16;4951821;28;20054;-78
2023/01/27 01:50:39;;;;;;;27.65;10.23;;;;;;;4.69;100.00;102065.25;4952634;28;20054;-79
2023/01/27 01:53:08;;;;;;;23.88;7.72;;;;;;;4.64;100.00;102060.75;4952935;28;20054;-80
2023/01/27 01:55:36;;;;;;;23.42;8.20;;;;;;;4.57;100.00;102049.47;4952354;28;20142;-79
2023/01/27 01:58:05;;;;;;;31.15;11.18;;;;;;;4.54;100.00;102063.81;4956021;28;20436;-77
2023/01/27 02:00:32;;;;;;;14.55;6.32;;;;;;;4.55;100.00;102070.91;4952961;28;20864;-80
2023/01/27 02:03:00;;;;;;;41.08;14.35;;;;;;;4.54;100.00;102072.06;4956993;28;20858;-78
2023/01/27 02:05:31;;;;;;;34.00;12.70;;;;;;;4.50;100.00;102078.50;4953512;28;20154;-77
2023/01/27 02:08:15;;;;;;;31.55;12.18;;;;;;;4.46;100.00;102067.38;4962539;28;20059;-78
2023/01/27 02:10:42;;;;;;;36.35;14.13;;;;;;;4.47;100.00;102069.00;4950418;28;20046;-78
2023/01/27 02:13:09;;;;;;;31.58;11.63;;;;;;;4.44;100.00;102068.81;4954782;28;20080;-78
2023/01/27 02:15:36;;;;;;;33.05;12.45;;;;;;;4.39;100.00;102069.78;4957901;28;20047;-78
2023/01/27 02:18:03;;;;;;;29.10;12.35;;;;;;;4.40;100.00;102076.91;4951574;28;20057;-78
2023/01/27 02:20:34;;;;;;;21.95;9.55;;;;;;;4.37;100.00;102069.31;4950256;28;20046;-78
2023/01/27 02:23:16;;;;;;;36.28;13.27;;;;;;;4.38;100.00;102073.66;4948703;28;20050;-80
2023/01/27 02:25:56;;;;;;;32.67;12.50;;;;;;;4.33;100.00;102067.53;4944592;28;20042;-80
2023/01/27 02:28:27;;;;;;;32.70;13.30;;;;;;;4.38;100.00;102070.94;4953010;28;20072;-81
2023/01/27 02:30:53;;;;;;;34.00;12.55;;;;;;;4.34;100.00;102055.44;4950287;28;20058;-81
2023/01/27 02:33:20;;;;;;;29.05;10.88;;;;;;;4.34;100.00;102064.47;4952102;28;20051;-82
2023/01/27 02:36:02;;;;;;;32.45;12.23;;;;;;;4.34;100.00;102069.97;4950234;28;20046;-80
2023/01/27 02:38:33;;;;;;;31.05;12.32;;;;;;;4.34;100.00;102064.47;4946635;28;20054;-82
2023/01/27 02:41:15;;;;;;;24.90;9.60;;;;;;;4.30;100.00;102066.25;4947728;28;20065;-78
2023/01/27 02:43:41;;;;;;;30.33;12.40;;;;;;;4.34;100.00;102063.66;4945854;28;20940;-81
2023/01/27 02:46:08;;;;;;;27.20;11.30;;;;;;;4.32;100.00;102068.69;4946722;28;20051;-81
2023/01/27 02:48:34;;;;;;;34.70;13.48;;;;;;;4.32;100.00;102068.69;4946114;28;20061;-79
2023/01/27 02:51:01;;;;;;;32.28;12.10;;;;;;;4.27;100.00;102064.16;4946987;28;20063;-80
2023/01/27 02:53:27;;;;;;;30.42;11.07;;;;;;;4.30;100.00;102073.66;4949813;28;20757;-80
2023/01/27 02:55:54;;;;;;;31.45;11.63;;;;;;;4.26;100.00;102068.00;4949292;28;20162;-80
2023/01/27 02:58:20;;;;;;;30.33;11.75;;;;;;;4.28;100.00;102078.66;4948765;28;20055;-80
2023/01/27 03:00:47;;;;;;;32.80;12.68;;;;;;;4.21;100.00;102068.19;4952169;28;20054;-81
2023/01/27 03:03:13;;;;;;;28.85;12.13;;;;;;;4.24;100.00;102081.25;4947432;28;20050;-79
2023/01/27 03:05:40;;;;;;;29.50;11.63;;;;;;;4.24;100.00;102075.75;4965469;28;20145;-77
2023/01/27 03:08:10;;;;;;;29.45;11.15;;;;;;;4.25;100.00;102074.63;4973469;28;20120;-78
2023/01/27 03:10:38;;;;;;;34.33;11.57;;;;;;;4.22;100.00;102071.75;4949822;28;20061;-78
2023/01/27 03:13:04;;;;;;;26.83;10.93;;;;;;;4.23;100.00;102078.81;4974467;28;20365;-80
2023/01/27 03:18:16;;;;;;;31.38;11.82;;;;;;;4.19;100.00;102078.66;4966483;28;20051;-80
2023/01/27 03:20:47;;;;;;;32.78;12.57;;;;;;;4.22;100.00;102078.00;4960317;28;20047;-78
2023/01/27 03:23:16;;;;;;;33.13;12.85;;;;;;;4.23;100.00;102076.91;4965656;28;20054;-79
2023/01/27 03:25:45;;;;;;;32.30;11.65;;;;;;;4.24;100.00;102074.94;4963294;28;20047;-78
2023/01/27 03:28:14;;;;;;;30.77;13.05;;;;;;;4.20;100.00;102063.03;4971125;28;20477;-79
2023/01/27 03:30:41;;;;;;;32.53;10.95;;;;;;;4.21;100.00;102064.63;4966918;28;20054;-80
2023/01/27 03:33:07;;;;;;;31.35;11.20;;;;;;;4.23;100.00;102071.41;4967982;28;20598;-78
2023/01/27 03:35:37;;;;;;;34.80;12.07;;;;;;;4.24;100.00;102064.00;4961918;28;20127;-78
2023/01/27 03:46:26;;;;;;;31.38;11.48;;;;;;;4.20;100.00;102069.31;4979739;28;20054;-79
2023/01/27 03:48:54;;;;;;;31.35;12.20;;;;;;;4.21;100.00;102070.94;4968059;28;20054;-79
2023/01/27 03:51:27;;;;;;;33.92;13.50;;;;;;;4.22;100.00;102064.31;4981273;28;20074;-77
2023/01/27 03:53:53;;;;;;;36.92;12.93;;;;;;;4.22;100.00;102066.25;4974866;28;20059;-77
2023/01/27 03:56:21;;;;;;;30.95;11.10;;;;;;;4.18;100.00;102066.09;4966083;28;20494;-76
2023/01/27 03:58:48;;;;;;;31.55;13.02;;;;;;;4.20;100.00;102072.06;4976256;28;20054;-80
2023/01/27 04:01:17;;;;;;;30.50;11.75;;;;;;;4.20;100.00;102065.75;4960681;28;20058;-78
2023/01/27 04:09:26;;;;;;;29.85;12.07;;;;;;;4.19;100.00;102067.69;4978832;28;19933;-79
2023/01/27 04:11:54;;;;;;;33.65;12.18;;;;;;;4.17;100.00;102061.75;4968046;28;20427;-77
2023/01/27 04:14:31;;;;;;;35.63;13.85;;;;;;;4.21;100.00;102070.94;4968715;28;20062;-78
2023/01/27 04:17:17;;;;;;;30.75;11.85;;;;;;;4.17;100.00;102047.22;4965485;28;20143;-78
2023/01/27 04:19:45;;;;;;;36.10;11.85;;;;;;;4.19;100.00;102064.94;4967551;28;20063;-80
2023/01/27 04:22:14;;;;;;;37.47;12.73;;;;;;;4.20;100.00;102066.59;4959621;28;20749;-78
2023/01/27 04:24:41;;;;;;;33.97;12.35;;;;;;;4.18;100.00;102063.34;4959678;28;20054;-79
2023/01/27 04:27:11;;;;;;;30.60;12.07;;;;;;;4.19;100.00;102070.44;4981335;28;20413;-78
2023/01/27 04:29:40;;;;;;;31.65;11.68;;;;;;;4.20;100.00;102063.03;4974819;28;20576;-78
2023/01/27 04:32:08;;;;;;;30.80;12.05;;;;;;;4.20;100.00;102066.59;4969995;28;20050;-79
2023/01/27 04:34:35;;;;;;;31.52;11.88;;;;;;;4.19;100.00;102073.16;4971708;28;20094;-79
2023/01/27 04:37:04;;;;;;;30.05;10.48;;;;;;;4.19;100.00;102072.38;4951424;28;20059;-77
2023/01/27 04:39:31;;;;;;;27.63;11.05;;;;;;;4.19;100.00;102061.44;4953344;28;20065;-77
2023/01/27 04:41:58;;;;;;;26.50;10.98;;;;;;;4.20;100.00;102066.59;4965502;28;20525;-79
2023/01/27 04:44:27;;;;;;;34.50;12.48;;;;;;;4.22;100.00;102069.78;4973984;28;20051;-80
2023/01/27 04:46:56;;;;;;;33.78;12.05;;;;;;;4.20;100.00;102068.50;4967079;28;20079;-78
2023/01/27 04:49:25;;;;;;;26.67;11.13;;;;;;;4.23;100.00;102082.38;4970336;28;20476;-77
2023/01/27 04:51:52;;;;;;;30.98;11.63;;;;;;;4.25;100.00;102082.06;4971281;28;20101;-80
2023/01/27 04:54:18;;;;;;;32.83;11.15;;;;;;;4.24;100.00;102086.72;4965620;28;20395;-80
2023/01/27 04:57:04;;;;;;;34.63;12.57;;;;;;;4.29;100.00;102088.50;4950289;28;20054;-77
2023/01/27 04:59:30;;;;;;;30.30;12.13;;;;;;;4.29;100.00;102094.78;4970738;28;20051;-77
2023/01/27 05:01:58;;;;;;;30.80;11.05;;;;;;;4.25;100.00;102080.09;4965474;28;20054;-79
2023/01/27 05:04:25;;;;;;;28.13;11.48;;;;;;;4.33;100.00;102094.94;4969724;28;20101;-79
2023/01/27 05:06:52;;;;;;;18.67;7.28;;;;;;;4.33;100.00;102098.50;4963342;28;20428;-78
2023/01/27 05:09:19;;;;;;;26.67;10.68;;;;;;;4.35;100.00;102092.66;4966527;28;20568;-78
2023/01/27 05:11:48;;;;;;;30.40;12.05;;;;;;;4.35;100.00;102089.94;4970998;28;20047;-78
2023/01/27 05:14:14;;;;;;;33.42;11.65;;;;;;;4.36;100.00;102092.34;4973371;28;20046;-78
2023/01/27 05:16:41;;;;;;;25.65;10.18;;;;;;;4.41;100.00;102100.44;4978698;28;20051;-75
2023/01/27 05:19:08;;;;;;;27.08;10.30;;;;;;;4.47;100.00;102103.81;4969316;28;20585;-76
2023/01/27 05:21:34;;;;;;;27.35;9.93;;;;;;;4.45;100.00;102090.44;4970427;28;20046;-79
2023/01/27 05:24:01;;;;;;;27.50;9.32;;;;;;;4.52;100.00;102098.97;4967100;28;20050;-78
2023/01/27 05:26:27;;;;;;;28.58;10.63;;;;;;;4.55;100.00;102106.53;4970013;28;20043;-79
2023/01/27 05:29:00;;;;;;;27.30;10.15;;;;;;;4.51;100.00;102102.84;4960158;28;20558;-78
2023/01/27 05:31:30;;;;;;;24.15;9.70;;;;;;;4.54;100.00;102107.69;4958180;28;20051;-77
2023/01/27 05:33:59;;;;;;;27.80;11.07;;;;;;;4.51;100.00;102100.09;4961225;28;20113;-79
2023/01/27 05:36:28;;;;;;;25.60;10.88;;;;;;;4.52;100.00;102103.66;4961814;28;20047;-79
2023/01/27 05:38:57;;;;;;;25.45;8.57;;;;;;;4.53;100.00;102108.00;4952334;28;20061;-80
2023/01/27 05:41:23;;;;;;;26.65;10.15;;;;;;;4.54;100.00;102118.66;4967434;28;20061;-79
2023/01/27 05:43:52;;;;;;;25.13;9.68;;;;;;;4.57;100.00;102112.53;4962901;28;20051;-78
2023/01/27 05:46:24;;;;;;;26.98;9.65;;;;;;;4.59;100.00;102117.69;4982472;28;20051;-78
2023/01/27 05:48:57;;;;;;;24.92;9.93;;;;;;;4.57;100.00;102108.97;4969810;28;20054;-77
2023/01/27 05:51:25;;;;;;;28.27;9.98;;;;;;;4.54;100.00;102115.91;4960616;28;20066;-78
2023/01/27 05:53:52;;;;;;;21.42;7.90;;;;;;;4.54;100.00;102110.44;4969121;28;20065;-78
2023/01/27 05:56:19;;;;;;;22.23;8.82;;;;;;;4.54;100.00;102107.69;4973520;28;20569;-78
2023/01/27 05:58:46;;;;;;;25.05;10.73;;;;;;;4.57;100.00;102112.53;4966413;28;20051;-78
2023/01/27 06:01:21;;;;;;;15.05;5.90;;;;;;;4.60;100.00;102108.31;4952716;28;20070;-79
2023/01/27 06:03:48;;;;;;;20.45;7.65;;;;;;;4.61;100.00;102108.00;4969479;28;20753;-79
2023/01/27 06:06:17;;;;;;;19.40;8.02;;;;;;;4.63;100.00;102105.72;4966256;28;20089;-79
2023/01/27 06:08:46;;;;;;;21.85;8.57;;;;;;;4.60;100.00;102100.91;4974458;28;20624;-80
2023/01/27 06:11:13;;;;;;;13.40;5.03;;;;;;;4.65;100.00;102102.66;4973861;28;20046;-79
2023/01/27 06:13:40;;;;;;;21.02;7.32;;;;;;;4.58;100.00;102100.44;4973697;28;20058;-78
2023/01/27 06:16:09;;;;;;;11.63;4.05;;;;;;;4.62;100.00;102101.38;4952592;28;20804;-79
2023/01/27 06:18:37;;;;;;;18.00;6.15;;;;;;;4.67;100.00;102108.63;4964812;28;20109;-79
2023/01/27 06:21:05;;;;;;;18.48;6.85;;;;;;;4.67;100.00;102111.38;4965928;28;20047;-78
2023/01/27 06:23:32;;;;;;;18.08;7.75;;;;;;;4.66;100.00;102121.53;4963325;28;20054;-78
2023/01/27 06:26:05;;;;;;;16.77;6.53;;;;;;;4.67;100.00;102119.59;4952888;28;20151;-77
2023/01/27 06:28:32;;;;;;;18.23;6.10;;;;;;;4.66;100.00;102127.00;4962895;28;20046;-76
2023/01/27 06:31:07;;;;;;;19.70;7.63;;;;;;;4.63;100.00;102129.63;4967417;28;20062;-79
2023/01/27 06:33:34;;;;;;;18.65;7.10;;;;;;;4.66;100.00;102124.28;4969741;28;20477;-78
2023/01/27 06:36:20;;;;;;;17.83;7.68;;;;;;;4.69;100.00;102139.28;4965292;28;20105;-78
2023/01/27 06:38:48;;;;;;;20.48;7.47;;;;;;;4.66;100.00;102129.75;4978372;28;20057;-78
2023/01/27 06:41:15;;;;;;;17.70;6.90;;;;;;;4.71;100.00;102139.75;4969081;28;20129;-77
2023/01/27 06:43:41;;;;;;;17.42;7.53;;;;;;;4.71;100.00;102139.75;4966152;28;20054;-76
2023/01/27 06:46:08;;;;;;;19.92;6.18;;;;;;;4.67;100.00;102136.06;4954140;28;20055;-79
2023/01/27 06:48:37;;;;;;;8.82;4.10;;;;;;;4.67;100.00;102136.06;4972755;28;20145;-77
2023/01/27 06:51:05;;;;;;;18.33;6.90;;;;;;;4.71;100.00;102146.06;4974607;28;20070;-77
2023/01/27 06:53:31;;;;;;;16.25;6.45;;;;;;;4.70;100.00;102149.91;4957829;28;20047;-77
2023/01/27 06:55:59;;;;;;;18.70;7.15;;;;;;;4.72;100.00;102144.91;4964470;28;20061;-77
2023/01/27 06:58:27;;;;;;;17.90;6.78;;;;;;;4.70;100.00;102146.38;4968468;28;20082;-77
2023/01/27 07:00:54;;;;;;;19.38;7.40;;;;;;;4.71;100.00;102150.72;4961256;28;20054;-80
2023/01/27 07:03:20;;;;;;;12.00;4.57;;;;;;;4.70;100.00;102152.66;4968105;28;20488;-81
2023/01/27 07:05:47;;;;;;;21.02;7.72;;;;;;;4.73;100.00;102159.44;4974715;28;20551;-79
2023/01/27 07:08:13;;;;;;;14.80;5.93;;;;;;;4.68;100.00;102156.84;4966592;28;20061;-78
2023/01/27 07:10:40;;;;;;;19.38;8.00;;;;;;;4.67;100.00;102160.72;4967570;28;20057;-77
2023/01/27 07:13:09;;;;;;;19.50;7.78;;;;;;;4.70;100.00;102163.63;4975126;28;20078;-78
2023/01/27 07:15:36;;;;;;;18.73;7.80;;;;;;;4.67;100.00;102169.78;4971957;28;20760;-79
2023/01/27 07:18:03;;;;;;;20.30;8.23;;;;;;;4.60;100.00;102155.75;4965641;28;20059;-79
2023/01/27 07:20:30;;;;;;;22.70;9.40;;;;;;;4.69;100.00;102170.25;4966489;28;20130;-79
2023/01/27 07:23:01;;;;;;;22.42;8.55;;;;;;;4.67;100.00;102167.03;4976769;28;20433;-78
2023/01/27 07:25:30;;;;;;;16.00;5.85;;;;;;;4.70;100.00;102179.28;4960990;28;20051;-77
2023/01/27 07:27:58;;;;;;;12.20;5.05;;;;;;;4.71;100.00;102178.16;4958398;28;20051;-77
2023/01/27 07:30:25;;;;;;;18.80;7.47;;;;;;;4.69;100.00;102170.25;4980804;28;20103;-85
2023/01/27 07:32:54;;;;;;;21.33;8.90;;;;;;;4.73;100.00;102182.16;4964135;28;20505;-77
2023/01/27 07:35:21;;;;;;;20.75;9.00;;;;;;;4.69;100.00;102177.69;4966416;28;20059;-80
2023/01/27 07:37:48;;;;;;;22.13;9.15;;;;;;;4.70;100.00;102177.31;4966712;28;20047;-77
2023/01/27 07:40:14;;;;;;;21.38;8.88;;;;;;;4.67;100.00;102172.50;4966167;28;20406;-80
2023/01/27 07:42:41;;;;;;;18.95;8.27;;;;;;;4.77;100.00;102183.16;4968239;28;20053;-77
2023/01/27 07:45:08;;;;;;;21.80;9.07;;;;;;;4.75;100.00;102187.34;4966077;28;20138;-81
2023/01/27 07:47:35;;;;;;;24.98;10.05;;;;;;;4.74;100.00;102188.47;4972343;28;20073;-79
2023/01/27 07:50:01;;;;;;;19.77;8.10;;;;;;;4.79;100.00;102197.34;4962454;28;20055;-80
2023/01/27 07:52:28;;;;;;;22.67;9.05;;;;;;;4.81;100.00;102195.09;4967845;28;20047;-79
2023/01/27 07:54:54;;;;;;;21.70;9.55;;;;;;;4.81;100.00;102197.84;4965399;28;20527;-81
2023/01/27 07:57:21;;;;;;;19.42;8.75;;;;;;;4.85;100.00;102198.78;4949134;28;20043;-78
2023/01/27 07:59:47;;;;;;;23.77;9.70;;;;;;;4.89;100.00;102196.19;4965035;28;20085;-80
2023/01/27 08:02:13;;;;;;;20.52;8.10;;;;;;;4.91;100.00;102194.78;4970525;28;20050;-78
2023/01/27 08:04:40;;;;;;;21.85;8.10;;;;;;;4.88;100.00;102194.59;4973879;28;20051;-78
2023/01/27 08:07:18;;;;;;;19.85;7.03;;;;;;;4.87;100.00;102191.03;4972021;28;20191;-78
2023/01/27 08:09:45;;;;;;;20.88;7.57;;;;;;;4.91;100.00;102194.78;4968987;28;20501;-79
2023/01/27 08:12:11;;;;;;;21.48;8.90;;;;;;;4.98;100.00;102195.09;4970100;28;20070;-77
2023/01/27 08:14:38;;;;;;;20.70;8.82;;;;;;;5.03;100.00;102196.88;4966927;28;20102;-75
2023/01/27 08:17:04;;;;;;;22.77;9.60;;;;;;;5.09;100.00;102203.78;4970701;28;20062;-79
2023/01/27 08:19:31;;;;;;;20.10;8.55;;;;;;;5.10;100.00;102197.16;4968649;28;20073;-78
2023/01/27 08:21:57;;;;;;;22.80;9.27;;;;;;;5.07;100.00;102201.34;4976012;28;20133;-78
2023/01/27 08:24:23;;;;;;;22.67;8.75;;;;;;;5.09;100.00;102201.84;4968578;28;20049;-80
2023/01/27 08:26:50;;;;;;;18.95;7.55;;;;;;;5.10;100.00;102197.97;4971501;28;20051;-80
2023/01/27 08:29:17;;;;;;;22.17;9.30;;;;;;;5.11;100.00;102207.81;4962201;28;20278;-78
2023/01/27 08:31:43;;;;;;;21.92;9.23;;;;;;;5.13;100.00;102196.53;4970192;28;20043;-79
2023/01/27 08:34:10;;;;;;;20.10;8.95;;;;;;;5.12;100.00;102206.69;4971938;28;20051;-79
2023/01/27 08:36:40;;;;;;;20.67;8.40;;;;;;;5.18;100.00;102208.13;4972091;28;20042;-79
2023/01/27 08:39:08;;;;;;;20.73;8.30;;;;;;;5.18;100.00;102202.66;4972041;28;20057;-80
2023/01/27 08:41:35;;;;;;;20.48;9.18;;;;;;;5.19;100.00;102211.66;4969846;28;20522;-81
2023/01/27 08:44:01;;;;;;;19.25;8.55;;;;;;;5.18;100.00;102202.66;4962215;28;20261;-79
2023/01/27 08:46:28;;;;;;;20.27;7.47;;;;;;;5.23;100.00;102207.94;4962227;28;20102;-79
2023/01/27 08:48:54;;;;;;;19.90;7.32;;;;;;;5.26;100.00;102211.97;4963547;28;20061;-81
2023/01/27 08:51:21;;;;;;;23.52;8.50;;;;;;;5.22;100.00;102217.31;4975211;28;20054;-82
2023/01/27 08:53:47;;;;;;;20.30;7.93;;;;;;;5.22;100.00;102211.84;4967308;28;20182;-80
2023/01/27 08:56:14;;;;;;;21.40;8.27;;;;;;;5.28;100.00;102221.53;4975446;28;20046;-80
2023/01/27 08:58:41;;;;;;;20.25;8.52;;;;;;;5.28;100.00;102224.28;4966970;28;20043;-79
2023/01/27 09:01:08;;;;;;;20.60;7.05;;;;;;;5.30;100.00;102224.72;4960636;28;20433;-78
2023/01/27 09:03:35;;;;;;;21.55;8.35;;;;;;;5.28;100.00;102226.19;4972173;28;20056;-79
2023/01/27 09:06:02;;;;;;;21.25;8.27;;;;;;;5.32;100.00;102230.72;4968117;28;20062;-79
2023/01/27 09:08:29;;;;;;;20.60;8.05;;;;;;;5.34;100.00;102236.66;4970522;28;20043;-80
2023/01/27 09:10:56;;;;;;;20.67;7.93;;;;;;;5.32;100.00;102235.38;4964859;28;20082;-80
2023/01/27 09:13:22;;;;;;;17.50;7.53;;;;;;;5.37;100.00;102235.22;4967859;28;20058;-79
2023/01/27 09:15:53;;;;;;;19.63;7.72;;;;;;;5.39;100.00;102241.19;4962102;28;20053;-81
2023/01/27 09:18:19;;;;;;;17.95;7.32;;;;;;;5.38;100.00;102247.81;4972480;28;20147;-80
2023/01/27 09:20:46;;;;;;;14.70;5.68;;;;;;;5.39;100.00;102252.97;4980836;28;20708;-80
2023/01/27 09:23:12;;;;;;;17.23;6.95;;;;;;;5.42;100.00;102254.25;4956027;28;20074;-77
2023/01/27 09:25:39;;;;;;;17.38;6.80;;;;;;;5.46;100.00;102257.19;4972036;28;20050;-79
2023/01/27 09:28:08;;;;;;;17.02;6.38;;;;;;;5.47;100.00;102250.53;4969325;28;20046;-80
2023/01/27 09:30:35;;;;;;;19.40;7.65;;;;;;;5.48;100.00;102255.72;4971207;28;20042;-80
2023/01/27 09:33:02;;;;;;;19.30;7.65;;;;;;;5.47;100.00;102256.84;4973262;28;20065;-80
2023/01/27 09:35:35;;;;;;;16.67;6.45;;;;;;;5.47;100.00;102267.84;4970416;28;20053;-79
2023/01/27 09:38:03;;;;;;;17.10;7.05;;;;;;;5.47;100.00;102268.63;4976981;28;20052;-79
2023/01/27 09:40:50;;;;;;;21.48;7.75;;;;;;;5.47;100.00;102260.38;4953311;28;20061;-80
2023/01/27 09:43:32;;;;;;;20.05;7.82;;;;;;;5.47;100.00;102268.63;4973908;28;20065;-80
2023/01/27 09:46:23;;;;;;;21.02;7.90;;;;;;;5.55;100.00;102277.16;4957991;28;20049;-80
2023/01/27 09:49:07;;;;;;;16.63;6.95;;;;;;;5.52;100.00;102267.66;4969534;28;20058;-80
2023/01/27 09:51:52;;;;;;;20.33;7.45;;;;;;;5.54;100.00;102278.31;4962426;28;20055;-79
2023/01/27 09:54:30;;;;;;;20.20;7.32;;;;;;;5.56;100.00;102276.06;4972234;28;20042;-79
2023/01/27 09:57:01;;;;;;;20.05;7.47;;;;;;;5.52;100.00;102275.88;4962068;28;20054;-79
2023/01/27 10:00:09;;;;;;;16.33;6.40;;;;;;;5.55;100.00;102269.75;4969959;28;20050;-79
2023/01/27 10:03:10;;;;;;;18.08;6.40;;;;;;;5.55;100.00;102274.41;4964813;28;20146;-79
2023/01/27 10:05:43;;;;;;;17.00;6.90;;;;;;;5.58;100.00;102282.00;4966498;28;20050;-78
2023/01/27 10:08:46;;;;;;;15.32;5.88;;;;;;;5.55;100.00;102277.97;4974876;28;20046;-77
2023/01/27 10:11:16;;;;;;;16.33;5.88;;;;;;;5.56;100.00;102268.59;4953187;28;20282;-79
2023/01/27 10:14:14;;;;;;;17.38;7.50;;;;;;;5.60;100.00;102271.53;4952646;28;20055;-79
2023/01/27 10:17:04;;;;;;;20.67;7.45;;;;;;;5.63;100.00;102270.88;4958719;28;20046;-79
2023/01/27 10:19:49;;;;;;;19.38;7.70;;;;;;;5.62;100.00;102275.53;4969429;28;20047;-80
2023/01/27 10:22:49;;;;;;;16.98;5.75;;;;;;;5.62;100.00;102277.47;4949663;28;20043;-79
2023/01/27 10:25:41;;;;;;;19.35;7.93;;;;;;;5.62;100.00;102278.28;4955474;28;20508;-79
2023/01/27 10:28:13;;;;;;;9.27;4.43;;;;;;;5.60;100.00;102272.31;4960346;28;20410;-81
2023/01/27 10:30:47;;;;;;;19.95;7.47;;;;;;;5.59;100.00;102273.44;4953574;28;20046;-81
2023/01/27 10:33:21;;;;;;;20.35;8.68;;;;;;;5.65;100.00;102274.91;4971514;28;20638;-79
2023/01/27 10:36:12;;;;;;;19.70;7.25;;;;;;;5.60;100.00;102260.53;4968473;28;20047;-81
2023/01/27 10:39:07;;;;;;;16.90;6.60;;;;;;;5.67;100.00;102280.84;4922238;28;20046;-80
2023/01/27 10:41:46;;;;;;;10.83;3.97;;;;;;;5.66;100.00;102284.75;4950822;28;20045;-79
2023/01/27 10:44:33;;;;;;;18.88;8.45;;;;;;;5.75;100.00;102276.47;4978346;28;20150;-81
2023/01/27 10:47:26;;;;;;;17.27;6.65;;;;;;;5.74;100.00;102291.34;4950881;28;20057;-80
2023/01/27 10:50:00;;;;;;;19.90;7.40;;;;;;;5.76;100.00;102280.81;4977128;28;20050;-80
2023/01/27 10:52:37;;;;;;;17.55;6.75;;;;;;;5.74;100.00;102285.84;4977151;28;20047;-80
2023/01/27 10:55:13;;;;;;;15.52;5.88;;;;;;;5.73;100.00;102276.81;4967543;28;20051;-80
2023/01/27 10:57:44;;;;;;;18.67;7.15;;;;;;;5.73;100.00;102287.00;4967440;28;20073;-80
2023/01/27 11:00:32;;;;;;;17.02;7.20;;;;;;;5.70;100.00;102273.91;4968551;28;20488;-80
2023/01/27 11:03:27;;;;;;;20.27;6.30;;;;;;;5.76;100.00;102269.84;4965383;28;20097;-82
2023/01/27 11:06:08;;;;;;;16.38;5.95;;;;;;;5.71;100.00;102267.28;4977515;28;20057;-80
2023/01/27 11:08:39;;;;;;;16.45;5.97;;;;;;;5.80;100.00;102270.81;4962565;28;20431;-81
2023/01/27 11:14:41;;;;;;;13.85;5.13;;;;;;;5.85;100.00;102267.91;4959645;28;20165;-82
2023/01/27 11:17:21;;;;;;;12.85;5.00;;;;;;;5.89;100.00;102255.94;4962644;28;20043;-82
2023/01/27 11:20:25;;;;;;;14.95;5.38;;;;;;;5.97;100.00;102266.09;4959180;28;20051;-80
2023/01/27 11:23:06;;;;;;;16.17;5.18;;;;;;;6.04;100.00;102265.59;4962382;28;20057;-82
2023/01/27 11:25:39;;;;;;;11.15;3.92;;;;;;;6.10;100.00;102267.00;4957573;28;20063;-82
2023/01/27 11:28:12;;;;;;;14.63;5.70;;;;;;;6.13;100.00;102269.09;4968688;28;20393;-80
2023/01/27 11:30:59;;;;;;;12.07;4.68;;;;;;;6.14;100.00;102266.03;4959918;28;20095;-79
2023/01/27 11:33:56;;;;;;;9.70;4.00;;;;;;;6.13;100.00;102258.09;4964159;28;20046;-79
2023/01/27 11:36:24;;;;;;;8.27;3.47;;;;;;;6.14;100.00;102260.53;4979066;28;20520;-78
2023/01/27 11:38:53;;;;;;;9.35;3.67;;;;;;;6.16;100.00;102257.44;4975368;28;20521;-79
2023/01/27 11:41:21;;;;;;;13.27;4.78;;;;;;;6.17;100.00;102264.56;4976393;28;20057;-79
2023/01/27 11:43:47;;;;;;;9.63;4.05;;;;;;;6.19;100.00;102248.53;4977313;28;20404;-79
2023/01/27 11:46:21;;;;;;;11.93;5.20;;;;;;;6.23;100.00;102249.50;4968632;28;20398;-80
2023/01/27 11:48:53;;;;;;;8.07;3.35;;;;;;;6.24;100.00;102248.38;4970204;28;20043;-80
2023/01/27 11:51:22;;;;;;;10.90;4.70;;;;;;;6.32;100.00;102247.50;4968212;28;20081;-81
2023/01/27 11:54:13;;;;;;;12.25;4.32;;;;;;;6.37;100.00;102242.63;4969560;28;20047;-79
2023/01/27 11:56:44;;;;;;;10.48;4.20;;;;;;;6.46;100.00;102254.38;4972962;28;20597;-78
2023/01/27 11:59:20;;;;;;;9.38;3.95;;;;;;;6.53;100.00;102249.16;4969697;28;20034;-79
2023/01/27 12:01:48;;;;;;;;;;;;;;;6.60;100.00;102251.38;4970750;28;20047;-80